Time;durP1;ratioP1;P1;durP2;ratioP2;P2;SDS_P1;SDS_P2;PMS_P1;PMS_P2;Temp;Humidity;BMP_temperature;BMP_pressure;BME280_temperature;BME280_humidity;BME280_pressure;Samples;Min_cycle;Max_cycle;Signal;HPM_P1;HPM_P2
2023/10/05 00:02:03;;;;;;;4.00;1.43;;;;;;;;;;5121046;28;20311;-64
2023/10/05 00:04:39;;;;;;;2.10;1.30;;;;;;;;;;5121239;28;20720;-64
2023/10/05 00:07:07;;;;;;;3.60;1.70;;;;;;;;;;5120604;28;20208;-63
2023/10/05 00:09:36;;;;;;;5.13;1.47;;;;;;;;;;5120716;28;20721;-63
2023/10/05 00:12:07;;;;;;;2.03;1.20;;;;;;;;;;5120493;28;20280;-64
2023/10/05 00:14:36;;;;;;;4.80;1.63;;;;;;;;;;5107050;28;20267;-63
2023/10/05 00:17:07;;;;;;;3.07;1.77;;;;;;;;;;5120556;28;20231;-64
2023/10/05 00:19:39;;;;;;;2.43;1.53;;;;;;;;;;5120712;28;20287;-64
2023/10/05 00:22:08;;;;;;;3.27;1.57;;;;;;;;;;5120662;28;20201;-64
2023/10/05 00:24:37;;;;;;;3.33;1.40;;;;;;;;;;5120429;28;20209;-64
2023/10/05 00:27:09;;;;;;;4.47;1.50;;;;;;;;;;5119962;27;21655;-63
2023/10/05 00:29:49;;;;;;;3.33;1.50;;;;;;;;;;5120199;28;20207;-65
2023/10/05 00:32:26;;;;;;;2.27;1.47;;;;;;;;;;5120387;28;20211;-64
2023/10/05 00:35:11;;;;;;;3.57;1.63;;;;;;;;;;5120048;28;20618;-64
2023/10/05 00:37:42;;;;;;;3.50;1.47;;;;;;;;;;5119441;28;20204;-65
2023/10/05 00:40:12;;;;;;;5.37;1.70;;;;;;;;;;5118236;28;20248;-63
2023/10/05 00:42:40;;;;;;;4.20;1.67;;;;;;;;;;5109797;28;20213;-63
2023/10/05 00:45:11;;;;;;;2.50;1.70;;;;;;;;;;5119685;28;20700;-63
2023/10/05 00:47:42;;;;;;;3.47;1.60;;;;;;;;;;5114117;28;20205;-65
2023/10/05 00:50:11;;;;;;;2.17;1.33;;;;;;;;;;5108556;28;20587;-64
2023/10/05 00:52:40;;;;;;;4.13;1.63;;;;;;;;;;5110082;28;20197;-64
2023/10/05 00:55:11;;;;;;;2.23;1.00;;;;;;;;;;5107832;28;20228;-64
2023/10/05 00:57:40;;;;;;;4.87;1.47;;;;;;;;;;5119222;28;20212;-64
2023/10/05 01:00:26;;;;;;;3.33;1.50;;;;;;;;;;5119923;28;20274;-66
2023/10/05 01:03:17;;;;;;;4.77;2.00;;;;;;;;;;5119984;28;20205;-65
2023/10/05 01:05:56;;;;;;;2.90;1.60;;;;;;;;;;5121031;28;20663;-65
2023/10/05 01:08:24;;;;;;;2.80;1.40;;;;;;;;;;5119665;28;20200;-65
2023/10/05 01:10:54;;;;;;;3.93;1.60;;;;;;;;;;5119294;28;20263;-64
2023/10/05 01:13:21;;;;;;;3.87;1.50;;;;;;;;;;5113193;28;20201;-65
2023/10/05 01:15:52;;;;;;;2.57;1.40;;;;;;;;;;5113313;28;20218;-64
2023/10/05 01:18:24;;;;;;;3.43;1.40;;;;;;;;;;5116179;28;20196;-65
2023/10/05 01:20:55;;;;;;;2.20;1.77;;;;;;;;;;5110091;28;20244;-64
2023/10/05 01:23:34;;;;;;;3.83;2.00;;;;;;;;;;5113640;28;20670;-64
2023/10/05 01:26:03;;;;;;;4.13;1.67;;;;;;;;;;5112411;28;20203;-66
2023/10/05 01:28:34;;;;;;;2.97;2.00;;;;;;;;;;5109012;28;20197;-64
2023/10/05 01:31:07;;;;;;;5.53;2.10;;;;;;;;;;5113095;28;20220;-65
2023/10/05 01:33:35;;;;;;;5.77;1.73;;;;;;;;;;5110732;28;20193;-64
2023/10/05 01:36:04;;;;;;;2.70;1.60;;;;;;;;;;5112689;28;20688;-64
2023/10/05 01:38:37;;;;;;;4.10;1.70;;;;;;;;;;5115988;28;20211;-64
2023/10/05 01:41:06;;;;;;;3.03;1.60;;;;;;;;;;5120458;28;20227;-64
2023/10/05 01:43:35;;;;;;;4.93;1.70;;;;;;;;;;5119400;28;20212;-67
2023/10/05 01:46:04;;;;;;;2.20;1.70;;;;;;;;;;5119595;28;20224;-64
2023/10/05 01:48:33;;;;;;;3.63;1.67;;;;;;;;;;5108443;28;20205;-64
2023/10/05 01:51:08;;;;;;;2.30;1.37;;;;;;;;;;5105578;28;20251;-64
2023/10/05 01:53:39;;;;;;;2.10;1.30;;;;;;;;;;5110250;28;20232;-65
2023/10/05 01:56:14;;;;;;;2.90;1.30;;;;;;;;;;5119292;28;20634;-64
2023/10/05 01:58:43;;;;;;;3.27;1.30;;;;;;;;;;5113154;28;20203;-64
2023/10/05 02:01:12;;;;;;;2.37;1.40;;;;;;;;;;5114860;28;20218;-64
2023/10/05 02:03:40;;;;;;;2.23;1.20;;;;;;;;;;5114687;28;20210;-65
2023/10/05 02:06:11;;;;;;;4.70;1.67;;;;;;;;;;5118626;28;20201;-66
2023/10/05 02:08:41;;;;;;;1.50;1.10;;;;;;;;;;5118597;28;20240;-66
2023/10/05 02:11:09;;;;;;;2.37;1.37;;;;;;;;;;5118532;28;20226;-66
2023/10/05 02:13:38;;;;;;;2.90;1.50;;;;;;;;;;5118529;28;20208;-65
2023/10/05 02:16:12;;;;;;;2.73;1.60;;;;;;;;;;5118357;28;20782;-66
2023/10/05 02:18:41;;;;;;;1.83;1.43;;;;;;;;;;5118426;28;20253;-65
2023/10/05 02:21:17;;;;;;;2.67;1.37;;;;;;;;;;5118640;28;20221;-65
2023/10/05 02:23:50;;;;;;;2.00;1.33;;;;;;;;;;5118278;28;20240;-65
2023/10/05 02:26:32;;;;;;;2.53;1.80;;;;;;;;;;5117027;28;20200;-65
2023/10/05 02:29:13;;;;;;;2.03;1.63;;;;;;;;;;5115414;28;20204;-65
2023/10/05 02:32:02;;;;;;;2.40;1.83;;;;;;;;;;5117681;28;20224;-65
2023/10/05 02:34:38;;;;;;;1.33;1.20;;;;;;;;;;5118330;28;20265;-65
2023/10/05 02:37:07;;;;;;;2.37;1.27;;;;;;;;;;5117947;28;20311;-68
2023/10/05 02:39:37;;;;;;;2.97;1.40;;;;;;;;;;5117822;28;20239;-65
2023/10/05 02:42:06;;;;;;;2.93;1.60;;;;;;;;;;5104269;28;20230;-65
2023/10/05 02:44:35;;;;;;;3.63;1.43;;;;;;;;;;5118268;28;20288;-65
2023/10/05 02:47:08;;;;;;;7.57;1.87;;;;;;;;;;5118482;28;20269;-65
2023/10/05 02:49:40;;;;;;;1.93;1.50;;;;;;;;;;5118295;28;20208;-66
2023/10/05 02:52:09;;;;;;;4.70;1.70;;;;;;;;;;5117978;28;20212;-65
2023/10/05 02:54:39;;;;;;;4.87;1.50;;;;;;;;;;5117646;28;20243;-65
2023/10/05 02:57:08;;;;;;;6.30;1.67;;;;;;;;;;5117553;28;20229;-65
2023/10/05 02:59:36;;;;;;;3.13;1.63;;;;;;;;;;5117763;28;20232;-65
2023/10/05 03:02:09;;;;;;;2.53;1.77;;;;;;;;;;5120872;28;20217;-65
2023/10/05 03:04:46;;;;;;;3.30;1.87;;;;;;;;;;5122135;28;20707;-65
2023/10/05 03:07:17;;;;;;;4.43;1.93;;;;;;;;;;5121925;28;20225;-65
2023/10/05 03:09:49;;;;;;;2.53;1.83;;;;;;;;;;5121962;28;20212;-65
2023/10/05 03:12:20;;;;;;;5.07;1.53;;;;;;;;;;5121335;28;20296;-66
2023/10/05 03:14:50;;;;;;;2.90;1.93;;;;;;;;;;5121644;28;20572;-65
2023/10/05 03:17:20;;;;;;;1.77;1.27;;;;;;;;;;5121892;28;20269;-65
2023/10/05 03:19:50;;;;;;;2.07;1.47;;;;;;;;;;5121630;28;20212;-65
2023/10/05 03:22:18;;;;;;;3.40;1.80;;;;;;;;;;5121566;28;20611;-65
2023/10/05 03:24:47;;;;;;;1.33;1.20;;;;;;;;;;5121447;28;20224;-65
2023/10/05 03:27:16;;;;;;;3.03;1.50;;;;;;;;;;5121300;28;20201;-65
2023/10/05 03:29:46;;;;;;;5.27;1.73;;;;;;;;;;5121412;28;20710;-65
2023/10/05 03:32:14;;;;;;;2.67;1.30;;;;;;;;;;5121405;28;20209;-65
2023/10/05 03:34:46;;;;;;;2.70;1.50;;;;;;;;;;5121536;28;20264;-65
2023/10/05 03:37:15;;;;;;;2.80;1.60;;;;;;;;;;5121298;28;20235;-66
2023/10/05 03:39:51;;;;;;;4.27;1.60;;;;;;;;;;5120025;27;20288;-65
2023/10/05 03:42:22;;;;;;;3.93;1.87;;;;;;;;;;5120396;28;20204;-65
2023/10/05 03:45:00;;;;;;;2.17;1.43;;;;;;;;;;5108502;28;20209;-65
2023/10/05 03:47:28;;;;;;;2.33;1.50;;;;;;;;;;5121381;28;20250;-65
2023/10/05 03:49:57;;;;;;;2.40;1.70;;;;;;;;;;5118801;28;20669;-65
2023/10/05 03:52:29;;;;;;;2.07;1.30;;;;;;;;;;5112226;28;20201;-65
2023/10/05 03:55:01;;;;;;;4.93;1.73;;;;;;;;;;5117936;28;20276;-65
2023/10/05 03:57:31;;;;;;;4.53;1.50;;;;;;;;;;5111541;28;20221;-65
2023/10/05 04:00:01;;;;;;;1.87;1.33;;;;;;;;;;5112031;28;20275;-65
2023/10/05 04:02:29;;;;;;;3.23;1.57;;;;;;;;;;5111434;28;20211;-65
2023/10/05 04:04:58;;;;;;;5.87;1.67;;;;;;;;;;5119116;28;20250;-64
2023/10/05 04:07:28;;;;;;;3.93;1.90;;;;;;;;;;5120514;28;20246;-63
2023/10/05 04:10:01;;;;;;;5.23;2.00;;;;;;;;;;5114471;28;20614;-65
2023/10/05 04:12:32;;;;;;;2.33;1.60;;;;;;;;;;5116425;28;20205;-63
2023/10/05 04:15:01;;;;;;;4.13;2.13;;;;;;;;;;5111925;28;20209;-63
2023/10/05 04:17:29;;;;;;;6.20;2.63;;;;;;;;;;5118044;28;20224;-64
2023/10/05 04:19:58;;;;;;;4.73;1.83;;;;;;;;;;5110718;28;20586;-63
2023/10/05 04:22:26;;;;;;;3.60;1.70;;;;;;;;;;5117210;28;20223;-63
2023/10/05 04:24:54;;;;;;;3.47;1.73;;;;;;;;;;5120174;28;20253;-63
2023/10/05 04:27:22;;;;;;;3.37;1.90;;;;;;;;;;5112944;28;20196;-63
2023/10/05 04:29:52;;;;;;;4.17;1.80;;;;;;;;;;5115445;28;20628;-63
2023/10/05 04:32:21;;;;;;;1.70;1.50;;;;;;;;;;5120487;28;20286;-64
2023/10/05 04:34:50;;;;;;;3.97;1.67;;;;;;;;;;5120083;28;20683;-64
2023/10/05 04:37:18;;;;;;;5.13;1.57;;;;;;;;;;5120271;28;20286;-64
2023/10/05 04:39:46;;;;;;;5.50;1.90;;;;;;;;;;5119942;27;20264;-64
2023/10/05 04:42:15;;;;;;;3.30;1.40;;;;;;;;;;5119970;28;20208;-64
2023/10/05 04:44:45;;;;;;;3.93;1.77;;;;;;;;;;5119902;28;20260;-64
2023/10/05 04:47:15;;;;;;;5.17;2.17;;;;;;;;;;5120187;28;20287;-64
2023/10/05 04:49:44;;;;;;;2.87;1.63;;;;;;;;;;5119817;28;20204;-64
2023/10/05 04:52:19;;;;;;;1.50;1.40;;;;;;;;;;5119793;28;20211;-65
2023/10/05 04:54:51;;;;;;;6.60;1.90;;;;;;;;;;5119634;28;20293;-64
2023/10/05 04:57:35;;;;;;;2.67;1.77;;;;;;;;;;5119281;28;20267;-65
2023/10/05 05:00:48;;;;;;;2.57;1.50;;;;;;;;;;5119720;28;20254;-64
2023/10/05 05:03:05;;;;;;;4.47;1.50;;;;;;;;;;5117435;28;20284;-65
2023/10/05 05:05:35;;;;;;;3.53;2.00;;;;;;;;;;5119546;28;20211;-63
2023/10/05 05:08:03;;;;;;;3.00;1.63;;;;;;;;;;5119380;28;20211;-65
2023/10/05 05:10:31;;;;;;;2.33;1.50;;;;;;;;;;5119402;28;20243;-64
2023/10/05 05:12:59;;;;;;;3.23;2.00;;;;;;;;;;5118942;28;20208;-64
2023/10/05 05:15:38;;;;;;;7.07;2.40;;;;;;;;;;5115652;27;20197;-64
2023/10/05 05:18:14;;;;;;;3.93;1.80;;;;;;;;;;5119148;28;20228;-64
2023/10/05 05:20:44;;;;;;;2.43;1.67;;;;;;;;;;5115773;28;20216;-64
2023/10/05 05:23:13;;;;;;;2.77;2.13;;;;;;;;;;5105721;28;20665;-62
2023/10/05 05:25:41;;;;;;;6.57;2.37;;;;;;;;;;5118553;28;20228;-64
2023/10/05 05:28:09;;;;;;;5.50;3.00;;;;;;;;;;5119028;28;20197;-66
2023/10/05 05:30:39;;;;;;;4.90;3.17;;;;;;;;;;5119067;28;20320;-64
2023/10/05 05:33:10;;;;;;;4.03;2.93;;;;;;;;;;5119191;28;20579;-64
2023/10/05 05:35:39;;;;;;;6.73;3.07;;;;;;;;;;5119259;28;20205;-61
2023/10/05 05:38:09;;;;;;;4.67;3.27;;;;;;;;;;5118506;28;20281;-62
2023/10/05 05:40:38;;;;;;;8.23;3.50;;;;;;;;;;5118876;28;20217;-61
2023/10/05 05:43:08;;;;;;;6.43;3.80;;;;;;;;;;5118429;28;20216;-62
2023/10/05 05:45:39;;;;;;;7.57;5.07;;;;;;;;;;5118674;28;20204;-61
2023/10/05 05:48:09;;;;;;;6.33;4.07;;;;;;;;;;5119050;28;20211;-63
2023/10/05 05:50:39;;;;;;;6.97;3.30;;;;;;;;;;5118689;28;20585;-62
2023/10/05 05:53:11;;;;;;;10.47;3.17;;;;;;;;;;5118285;28;20235;-61
2023/10/05 05:55:43;;;;;;;5.90;3.23;;;;;;;;;;5118788;28;20218;-62
2023/10/05 05:58:14;;;;;;;6.07;2.60;;;;;;;;;;5118476;28;20228;-62
2023/10/05 06:00:45;;;;;;;4.93;2.80;;;;;;;;;;5118258;28;20710;-62
2023/10/05 06:03:16;;;;;;;3.60;2.23;;;;;;;;;;5114758;28;20192;-62
2023/10/05 06:05:48;;;;;;;6.20;2.07;;;;;;;;;;5112280;28;20205;-62
2023/10/05 06:08:16;;;;;;;6.70;2.40;;;;;;;;;;5118458;28;20197;-61
2023/10/05 06:10:46;;;;;;;8.13;2.60;;;;;;;;;;5118127;28;20281;-62
2023/10/05 06:13:13;;;;;;;2.80;2.13;;;;;;;;;;5118042;28;20201;-62
2023/10/05 06:15:42;;;;;;;5.00;2.83;;;;;;;;;;5118326;28;20236;-61
2023/10/05 06:18:09;;;;;;;5.13;2.80;;;;;;;;;;5118078;28;20327;-63
2023/10/05 06:20:40;;;;;;;4.93;2.70;;;;;;;;;;5118030;28;20254;-63
2023/10/05 06:23:08;;;;;;;3.27;2.23;;;;;;;;;;5118151;28;20239;-61
2023/10/05 06:25:36;;;;;;;4.20;2.07;;;;;;;;;;5118044;28;20258;-62
2023/10/05 06:28:04;;;;;;;6.80;2.23;;;;;;;;;;5118083;28;20208;-61
2023/10/05 06:30:35;;;;;;;4.00;2.20;;;;;;;;;;5118065;28;20228;-61
2023/10/05 06:33:07;;;;;;;6.17;2.03;;;;;;;;;;5118300;28;20201;-62
2023/10/05 06:35:36;;;;;;;7.13;3.30;;;;;;;;;;5118228;28;20236;-61
2023/10/05 06:38:05;;;;;;;6.10;2.77;;;;;;;;;;5122295;28;20319;-61
2023/10/05 06:40:33;;;;;;;4.67;2.47;;;;;;;;;;5122061;28;20303;-61
2023/10/05 06:43:01;;;;;;;7.20;2.47;;;;;;;;;;5121770;28;20234;-61
2023/10/05 06:45:32;;;;;;;2.73;1.83;;;;;;;;;;5122343;28;20220;-61
2023/10/05 06:48:02;;;;;;;3.90;1.80;;;;;;;;;;5122117;28;20235;-61
2023/10/05 06:50:30;;;;;;;2.30;1.50;;;;;;;;;;5122706;28;20238;-61
2023/10/05 06:52:58;;;;;;;3.27;1.83;;;;;;;;;;5121696;28;20612;-63
2023/10/05 06:55:28;;;;;;;6.37;2.00;;;;;;;;;;5122255;28;20200;-61
2023/10/05 06:57:56;;;;;;;2.50;1.60;;;;;;;;;;5121935;28;20241;-61
2023/10/05 07:00:26;;;;;;;5.23;2.87;;;;;;;;;;5122008;28;20264;-62
2023/10/05 07:02:55;;;;;;;3.53;2.10;;;;;;;;;;5121740;27;20559;-61
2023/10/05 07:05:23;;;;;;;2.67;1.80;;;;;;;;;;5121982;28;20683;-62
2023/10/05 07:07:51;;;;;;;4.83;1.70;;;;;;;;;;5121965;28;20209;-62
2023/10/05 07:10:19;;;;;;;6.33;2.43;;;;;;;;;;5121727;28;20260;-61
2023/10/05 07:12:48;;;;;;;3.77;2.57;;;;;;;;;;5121745;28;20230;-63
2023/10/05 07:15:17;;;;;;;2.73;1.33;;;;;;;;;;5121623;28;20236;-65
2023/10/05 07:17:47;;;;;;;1.87;1.20;;;;;;;;;;5121869;28;20209;-64
2023/10/05 07:20:16;;;;;;;5.40;1.80;;;;;;;;;;5121358;28;20232;-64
2023/10/05 07:22:45;;;;;;;3.83;1.73;;;;;;;;;;5121742;28;20204;-64
2023/10/05 07:25:14;;;;;;;3.07;1.63;;;;;;;;;;5121692;28;20205;-65
2023/10/05 07:27:42;;;;;;;3.90;2.20;;;;;;;;;;5121200;28;20254;-63
2023/10/05 07:30:15;;;;;;;4.47;1.90;;;;;;;;;;5121555;28;20216;-65
2023/10/05 07:32:43;;;;;;;6.23;1.90;;;;;;;;;;5121658;28;20242;-65
2023/10/05 07:35:13;;;;;;;3.03;1.93;;;;;;;;;;5121200;28;20282;-65
2023/10/05 07:37:41;;;;;;;4.37;1.80;;;;;;;;;;5121486;28;20201;-64
2023/10/05 07:40:13;;;;;;;4.47;1.80;;;;;;;;;;5120843;28;20634;-63
2023/10/05 07:42:42;;;;;;;2.43;1.90;;;;;;;;;;5121178;28;20232;-63
2023/10/05 07:45:11;;;;;;;4.13;1.97;;;;;;;;;;5121409;28;20247;-64
2023/10/05 07:47:44;;;;;;;7.43;2.30;;;;;;;;;;5120920;28;20269;-64
2023/10/05 07:50:12;;;;;;;3.10;1.70;;;;;;;;;;5121005;28;20228;-63
2023/10/05 07:52:43;;;;;;;3.97;2.10;;;;;;;;;;5120807;28;20651;-64
2023/10/05 07:55:12;;;;;;;3.77;2.33;;;;;;;;;;5120739;28;20208;-64
2023/10/05 07:57:40;;;;;;;5.80;2.20;;;;;;;;;;5120792;28;20204;-64
2023/10/05 08:00:11;;;;;;;4.83;2.23;;;;;;;;;;5120764;28;20239;-66
2023/10/05 08:02:40;;;;;;;6.10;2.40;;;;;;;;;;5120706;28;20296;-66
2023/10/05 08:05:12;;;;;;;6.20;2.20;;;;;;;;;;5111282;28;20229;-66
2023/10/05 08:07:40;;;;;;;10.97;2.60;;;;;;;;;;5113631;28;20574;-66
2023/10/05 08:10:14;;;;;;;14.27;2.93;;;;;;;;;;5120773;28;20228;-66
2023/10/05 08:12:43;;;;;;;7.40;2.53;;;;;;;;;;5120613;28;20287;-65
2023/10/05 08:15:14;;;;;;;8.07;2.20;;;;;;;;;;5120466;28;20544;-65
2023/10/05 08:17:42;;;;;;;7.03;1.90;;;;;;;;;;5120959;28;20292;-65
2023/10/05 08:20:12;;;;;;;11.90;2.50;;;;;;;;;;5120479;28;20281;-65
2023/10/05 08:22:41;;;;;;;6.43;2.30;;;;;;;;;;5120322;28;20308;-66
2023/10/05 08:25:11;;;;;;;7.30;2.20;;;;;;;;;;5120425;28;20205;-65
2023/10/05 08:27:42;;;;;;;8.83;3.03;;;;;;;;;;5120291;28;20724;-65
2023/10/05 08:30:11;;;;;;;7.50;2.50;;;;;;;;;;5120330;28;20221;-65
2023/10/05 08:32:47;;;;;;;29.80;3.37;;;;;;;;;;5120480;28;20209;-65
2023/10/05 08:35:18;;;;;;;7.27;2.40;;;;;;;;;;5120388;28;20219;-66
2023/10/05 08:37:49;;;;;;;3.40;1.93;;;;;;;;;;5120259;28;20204;-65
2023/10/05 08:40:37;;;;;;;4.07;2.03;;;;;;;;;;5119654;28;20315;-66
2023/10/05 08:43:10;;;;;;;5.83;2.00;;;;;;;;;;5119594;28;20679;-66
2023/10/05 08:45:47;;;;;;;3.73;1.63;;;;;;;;;;5120231;28;20694;-65
2023/10/05 08:48:19;;;;;;;6.23;2.27;;;;;;;;;;5120184;27;20208;-65
2023/10/05 08:50:51;;;;;;;5.07;2.07;;;;;;;;;;5119667;28;20221;-66
2023/10/05 08:53:21;;;;;;;5.93;1.80;;;;;;;;;;5119716;28;20233;-66
2023/10/05 08:55:51;;;;;;;4.50;1.70;;;;;;;;;;5119897;28;20212;-66
2023/10/05 08:58:20;;;;;;;2.83;1.70;;;;;;;;;;5119271;28;20213;-65
2023/10/05 09:00:49;;;;;;;4.87;1.63;;;;;;;;;;5119576;28;20319;-66
2023/10/05 09:03:36;;;;;;;6.17;1.50;;;;;;;;;;5119433;28;20270;-65
2023/10/05 09:06:20;;;;;;;3.77;1.53;;;;;;;;;;5119742;28;20217;-65
2023/10/05 09:08:53;;;;;;;2.63;1.47;;;;;;;;;;5119627;28;20295;-65
2023/10/05 09:11:27;;;;;;;6.27;2.13;;;;;;;;;;5119169;28;20236;-66
2023/10/05 09:13:56;;;;;;;3.43;1.80;;;;;;;;;;5119771;28;20363;-66
2023/10/05 09:16:30;;;;;;;2.87;1.47;;;;;;;;;;5119557;28;20201;-66
2023/10/05 09:19:00;;;;;;;3.63;1.40;;;;;;;;;;5119085;28;20285;-66
2023/10/05 09:21:44;;;;;;;2.93;1.40;;;;;;;;;;5119136;28;20591;-65
2023/10/05 09:24:19;;;;;;;7.63;1.97;;;;;;;;;;5119309;28;20569;-65
2023/10/05 09:26:55;;;;;;;4.37;1.50;;;;;;;;;;5119153;28;20288;-66
2023/10/05 09:29:27;;;;;;;2.90;1.50;;;;;;;;;;5118972;28;20204;-66
2023/10/05 09:31:56;;;;;;;3.70;1.50;;;;;;;;;;5118856;28;20298;-66
2023/10/05 09:34:41;;;;;;;2.70;1.37;;;;;;;;;;5118935;28;20231;-66
2023/10/05 09:37:11;;;;;;;6.77;1.90;;;;;;;;;;5118706;28;20573;-66
2023/10/05 09:39:43;;;;;;;4.73;1.83;;;;;;;;;;5118727;28;20216;-66
2023/10/05 09:42:16;;;;;;;3.37;1.23;;;;;;;;;;5118744;28;20235;-66
2023/10/05 09:44:53;;;;;;;5.07;1.77;;;;;;;;;;5118943;28;20216;-66
2023/10/05 09:47:22;;;;;;;4.93;1.50;;;;;;;;;;5119031;28;20209;-66
2023/10/05 09:49:53;;;;;;;2.37;1.43;;;;;;;;;;5118873;28;20207;-66
2023/10/05 09:52:24;;;;;;;3.83;1.70;;;;;;;;;;5118890;28;20206;-65
2023/10/05 09:54:52;;;;;;;5.37;2.13;;;;;;;;;;5118261;28;20311;-64
2023/10/05 09:57:23;;;;;;;10.30;2.43;;;;;;;;;;5118237;28;20243;-64
2023/10/05 09:59:58;;;;;;;3.73;1.60;;;;;;;;;;5118269;28;20572;-64
2023/10/05 10:02:33;;;;;;;7.77;2.10;;;;;;;;;;5118422;28;20641;-64
2023/10/05 10:05:04;;;;;;;4.40;1.80;;;;;;;;;;5105498;28;20208;-64
2023/10/05 10:07:34;;;;;;;6.60;2.43;;;;;;;;;;5110102;28;20197;-65
2023/10/05 10:10:04;;;;;;;6.40;1.50;;;;;;;;;;5115007;28;20221;-65
2023/10/05 10:12:38;;;;;;;4.50;1.60;;;;;;;;;;5117939;28;20208;-65
2023/10/05 10:15:24;;;;;;;6.27;1.80;;;;;;;;;;5118125;28;20213;-64
2023/10/05 10:18:03;;;;;;;5.23;2.20;;;;;;;;;;5118394;28;20268;-64
2023/10/05 10:20:36;;;;;;;5.50;1.70;;;;;;;;;;5118313;28;20228;-64
2023/10/05 10:23:14;;;;;;;2.17;1.50;;;;;;;;;;5118028;28;20295;-65
2023/10/05 10:25:42;;;;;;;3.60;1.90;;;;;;;;;;5118428;28;20204;-64
2023/10/05 10:28:17;;;;;;;5.67;1.73;;;;;;;;;;5118058;28;20261;-65
2023/10/05 10:30:49;;;;;;;7.20;2.20;;;;;;;;;;5118143;28;20282;-65
2023/10/05 10:33:27;;;;;;;3.50;1.80;;;;;;;;;;5118302;28;20205;-64
2023/10/05 10:35:55;;;;;;;3.73;1.67;;;;;;;;;;5118233;28;20216;-64
2023/10/05 10:38:25;;;;;;;4.73;1.57;;;;;;;;;;5118229;28;20289;-64
2023/10/05 10:41:07;;;;;;;5.33;1.80;;;;;;;;;;5117786;28;20707;-64
2023/10/05 10:43:36;;;;;;;3.27;1.50;;;;;;;;;;5117707;28;20644;-65
2023/10/05 10:46:12;;;;;;;5.93;1.80;;;;;;;;;;5118225;28;20208;-65
2023/10/05 10:48:53;;;;;;;5.60;2.10;;;;;;;;;;5117932;28;20200;-65
2023/10/05 10:51:22;;;;;;;2.97;1.60;;;;;;;;;;5117729;28;20586;-65
2023/10/05 10:53:55;;;;;;;2.37;1.60;;;;;;;;;;5117409;28;20240;-66
2023/10/05 10:56:30;;;;;;;3.33;1.63;;;;;;;;;;5117763;28;20208;-66
2023/10/05 10:59:09;;;;;;;1.93;1.30;;;;;;;;;;5117673;28;20304;-66
2023/10/05 11:01:44;;;;;;;3.00;1.47;;;;;;;;;;5117691;28;20235;-65
2023/10/05 11:04:24;;;;;;;2.97;1.63;;;;;;;;;;5117812;28;20197;-65
2023/10/05 11:06:59;;;;;;;2.23;1.60;;;;;;;;;;5117624;28;20291;-65
2023/10/05 11:09:36;;;;;;;2.13;1.60;;;;;;;;;;5117705;28;20208;-65
2023/10/05 11:12:11;;;;;;;5.60;1.97;;;;;;;;;;5117569;28;20261;-65
2023/10/05 11:14:42;;;;;;;3.43;1.70;;;;;;;;;;5104355;28;20289;-64
2023/10/05 11:17:35;;;;;;;2.87;1.57;;;;;;;;;;5117414;28;20240;-65
2023/10/05 11:20:15;;;;;;;5.37;1.80;;;;;;;;;;5117628;28;20285;-66
2023/10/05 11:22:43;;;;;;;4.83;1.50;;;;;;;;;;5119740;28;20265;-65
2023/10/05 11:25:16;;;;;;;5.03;1.90;;;;;;;;;;5121350;28;20234;-65
2023/10/05 11:27:47;;;;;;;3.97;1.80;;;;;;;;;;5121062;28;20709;-66
2023/10/05 11:30:22;;;;;;;8.50;1.90;;;;;;;;;;5121503;28;20287;-65
2023/10/05 11:33:15;;;;;;;4.10;1.60;;;;;;;;;;5121447;27;20212;-66
2023/10/05 11:36:17;;;;;;;4.10;1.63;;;;;;;;;;5121529;28;20204;-65
2023/10/05 11:38:48;;;;;;;1.80;1.50;;;;;;;;;;5121254;28;20220;-65
2023/10/05 11:41:23;;;;;;;4.23;1.73;;;;;;;;;;5120729;28;20224;-65
2023/10/05 11:43:53;;;;;;;3.30;1.90;;;;;;;;;;5121304;28;20204;-65
2023/10/05 11:46:26;;;;;;;8.30;2.27;;;;;;;;;;5121253;28;20211;-64
2023/10/05 11:48:56;;;;;;;4.63;1.90;;;;;;;;;;5121349;28;20205;-65
2023/10/05 11:51:27;;;;;;;5.23;1.70;;;;;;;;;;5120824;28;20225;-64
2023/10/05 11:53:57;;;;;;;2.40;1.60;;;;;;;;;;5120754;28;20244;-64
2023/10/05 11:56:30;;;;;;;5.27;1.77;;;;;;;;;;5120429;28;20236;-64
2023/10/05 11:58:59;;;;;;;3.80;1.63;;;;;;;;;;5120847;28;20216;-63
2023/10/05 12:01:28;;;;;;;4.73;1.87;;;;;;;;;;5119626;28;20311;-64
2023/10/05 12:03:56;;;;;;;6.87;1.97;;;;;;;;;;5120749;28;20205;-64
2023/10/05 12:06:25;;;;;;;3.13;2.00;;;;;;;;;;5120778;28;20212;-64
2023/10/05 12:09:00;;;;;;;6.73;1.90;;;;;;;;;;5110711;28;20229;-64
2023/10/05 12:11:30;;;;;;;3.80;2.00;;;;;;;;;;5107365;28;20227;-65
2023/10/05 12:13:58;;;;;;;6.07;2.27;;;;;;;;;;5120697;28;20236;-65
2023/10/05 12:16:32;;;;;;;2.30;1.83;;;;;;;;;;5120641;28;20312;-64
2023/10/05 12:19:13;;;;;;;5.17;2.10;;;;;;;;;;5120235;28;20560;-64
2023/10/05 12:21:41;;;;;;;5.07;1.97;;;;;;;;;;5120534;28;20232;-66
2023/10/05 12:24:11;;;;;;;3.87;1.77;;;;;;;;;;5120320;28;20258;-64
2023/10/05 12:26:42;;;;;;;5.53;2.40;;;;;;;;;;5120187;28;20299;-67
2023/10/05 12:29:13;;;;;;;7.20;1.97;;;;;;;;;;5120444;28;20254;-65
2023/10/05 12:31:41;;;;;;;4.60;2.23;;;;;;;;;;5120107;28;20293;-65
2023/10/05 12:34:14;;;;;;;4.87;1.90;;;;;;;;;;5119302;28;20291;-60
2023/10/05 12:36:55;;;;;;;6.53;1.67;;;;;;;;;;5120259;28;20728;-61
2023/10/05 12:39:27;;;;;;;2.33;1.40;;;;;;;;;;5119999;27;20204;-64
2023/10/05 12:41:57;;;;;;;4.03;2.07;;;;;;;;;;5119679;28;20265;-63
2023/10/05 12:44:27;;;;;;;3.37;1.93;;;;;;;;;;5120154;28;20200;-63
2023/10/05 12:46:55;;;;;;;4.77;2.00;;;;;;;;;;5120038;28;20232;-62
2023/10/05 12:49:23;;;;;;;4.50;1.67;;;;;;;;;;5119766;28;20551;-62
2023/10/05 12:51:52;;;;;;;2.37;1.47;;;;;;;;;;5119745;27;20235;-63
2023/10/05 12:54:28;;;;;;;4.80;2.17;;;;;;;;;;5119065;28;20235;-62
2023/10/05 12:57:08;;;;;;;3.67;2.07;;;;;;;;;;5119371;27;20245;-64
2023/10/05 12:59:49;;;;;;;2.67;1.67;;;;;;;;;;5118548;28;20202;-63
2023/10/05 13:02:18;;;;;;;6.00;2.10;;;;;;;;;;5117688;28;20637;-64
2023/10/05 13:04:47;;;;;;;4.07;1.77;;;;;;;;;;5117504;28;20216;-63
2023/10/05 13:07:18;;;;;;;2.90;1.50;;;;;;;;;;5117601;28;20608;-63
2023/10/05 13:09:48;;;;;;;2.70;1.60;;;;;;;;;;5117481;28;20641;-63
2023/10/05 13:12:20;;;;;;;6.23;2.17;;;;;;;;;;5117944;28;20284;-64
2023/10/05 13:14:50;;;;;;;3.43;1.90;;;;;;;;;;5118846;28;20237;-63
2023/10/05 13:17:18;;;;;;;4.27;1.70;;;;;;;;;;5119529;28;20667;-63
2023/10/05 13:19:46;;;;;;;2.37;1.50;;;;;;;;;;5119189;28;20288;-63
2023/10/05 13:22:18;;;;;;;2.77;1.93;;;;;;;;;;5119071;28;20228;-64
2023/10/05 13:24:55;;;;;;;3.53;2.07;;;;;;;;;;5119061;28;20243;-63
2023/10/05 13:27:24;;;;;;;3.83;2.00;;;;;;;;;;5119037;28;20261;-63
2023/10/05 13:29:54;;;;;;;4.07;1.53;;;;;;;;;;5119057;28;20728;-63
2023/10/05 13:32:23;;;;;;;2.40;1.57;;;;;;;;;;5119455;28;20206;-63
2023/10/05 13:34:51;;;;;;;2.90;2.13;;;;;;;;;;5119152;28;20232;-63
2023/10/05 13:37:19;;;;;;;3.17;1.90;;;;;;;;;;5105636;28;20233;-63
2023/10/05 13:39:48;;;;;;;7.30;1.90;;;;;;;;;;5117097;27;20205;-62
2023/10/05 13:42:25;;;;;;;4.17;1.67;;;;;;;;;;5115485;28;20260;-62
2023/10/05 13:44:56;;;;;;;6.33;1.83;;;;;;;;;;5113664;28;20212;-63
2023/10/05 13:47:28;;;;;;;5.67;1.87;;;;;;;;;;5118891;28;20239;-62
2023/10/05 13:50:15;;;;;;;4.63;2.33;;;;;;;;;;5118542;28;20597;-63
2023/10/05 13:52:45;;;;;;;6.77;1.93;;;;;;;;;;5118253;28;20730;-64
2023/10/05 13:55:14;;;;;;;951.67;549.37;;;;;;;;;;5118410;28;20217;-66
2023/10/05 13:57:42;;;;;;;1440.07;747.63;;;;;;;;;;5113067;28;20537;-69
2023/10/05 14:00:18;;;;;;;54.47;31.83;;;;;;;;;;5113319;28;20649;-68
2023/10/05 14:02:47;;;;;;;12.47;8.00;;;;;;;;;;5118297;28;20256;-68
2023/10/05 14:05:15;;;;;;;15.47;7.17;;;;;;;;;;5118750;28;20206;-69
2023/10/05 14:07:44;;;;;;;9.03;6.40;;;;;;;;;;5118676;28;20271;-69
2023/10/05 14:10:17;;;;;;;4.77;3.23;;;;;;;;;;5111980;28;20235;-69
2023/10/05 14:12:45;;;;;;;6.43;4.40;;;;;;;;;;5117591;28;20204;-63
2023/10/05 14:15:19;;;;;;;4.20;1.93;;;;;;;;;;5118018;28;20289;-63
2023/10/05 14:17:49;;;;;;;2.33;2.00;;;;;;;;;;5118438;28;20261;-64
2023/10/05 14:20:17;;;;;;;2.27;1.70;;;;;;;;;;5118423;28;20232;-65
2023/10/05 14:22:46;;;;;;;4.07;1.80;;;;;;;;;;5118022;28;20225;-64
2023/10/05 14:25:23;;;;;;;4.07;1.80;;;;;;;;;;5117750;28;20267;-65
2023/10/05 14:27:52;;;;;;;5.50;2.13;;;;;;;;;;5117820;28;20202;-65
2023/10/05 14:30:23;;;;;;;3.57;1.63;;;;;;;;;;5117935;28;20224;-65
2023/10/05 14:32:51;;;;;;;4.10;1.90;;;;;;;;;;5118145;28;20206;-63
2023/10/05 14:35:20;;;;;;;3.97;1.63;;;;;;;;;;5117841;28;20210;-63
2023/10/05 14:37:52;;;;;;;3.27;1.80;;;;;;;;;;5117635;28;20219;-65
2023/10/05 14:40:21;;;;;;;3.17;1.80;;;;;;;;;;5117555;28;20812;-63
2023/10/05 14:42:50;;;;;;;4.00;2.07;;;;;;;;;;5117745;28;20225;-63
2023/10/05 14:45:21;;;;;;;4.20;1.70;;;;;;;;;;5116861;28;20237;-65
2023/10/05 14:47:52;;;;;;;3.63;1.93;;;;;;;;;;5117867;28;20242;-64
2023/10/05 14:50:21;;;;;;;5.67;1.67;;;;;;;;;;5117698;28;20303;-64
2023/10/05 14:52:50;;;;;;;4.70;1.80;;;;;;;;;;5117877;28;20266;-63
2023/10/05 14:55:20;;;;;;;4.53;1.73;;;;;;;;;;5117840;28;20206;-64
2023/10/05 14:57:48;;;;;;;2.70;1.73;;;;;;;;;;5120086;28;20562;-65
2023/10/05 15:00:17;;;;;;;4.67;2.20;;;;;;;;;;5121584;28;20228;-64
2023/10/05 15:02:45;;;;;;;7.47;2.17;;;;;;;;;;5121630;28;20228;-64
2023/10/05 15:05:14;;;;;;;4.67;1.90;;;;;;;;;;5118406;28;20211;-64
2023/10/05 15:07:43;;;;;;;2.53;1.60;;;;;;;;;;5121570;28;20581;-64
2023/10/05 15:10:17;;;;;;;3.93;1.80;;;;;;;;;;5121621;28;20222;-63